sensor_id;sensor_type;location;lat;lon;timestamp;P1;durP1;ratioP1;P2;durP2;ratioP2
44762;SDS011;30483;49.576;6.036;2023-12-20T04:02:38;1.35;;;0.47;;
44762;SDS011;30483;49.576;6.036;2023-12-20T04:05:07;0.90;;;0.60;;
44762;SDS011;30483;49.576;6.036;2023-12-20T04:07:33;1.73;;;0.60;;
44762;SDS011;30483;49.576;6.036;2023-12-20T04:10:00;2.22;;;0.80;;
44762;SDS011;30483;49.576;6.036;2023-12-20T04:12:26;1.20;;;0.50;;
44762;SDS011;30483;49.576;6.036;2023-12-20T04:14:53;2.72;;;0.70;;
44762;SDS011;30483;49.576;6.036;2023-12-20T04:17:19;2.97;;;0.60;;
44762;SDS011;30483;49.576;6.036;2023-12-20T04:19:45;1.60;;;0.70;;
44762;SDS011;30483;49.576;6.036;2023-12-20T04:22:11;1.23;;;0.60;;
44762;SDS011;30483;49.576;6.036;2023-12-20T04:24:36;1.42;;;0.70;;
44762;SDS011;30483;49.576;6.036;2023-12-20T04:27:02;2.55;;;0.80;;
44762;SDS011;30483;49.576;6.036;2023-12-20T04:29:27;2.47;;;0.70;;
44762;SDS011;30483;49.576;6.036;2023-12-20T04:31:53;1.55;;;0.68;;
44762;SDS011;30483;49.576;6.036;2023-12-20T04:34:19;2.53;;;0.80;;
44762;SDS011;30483;49.576;6.036;2023-12-20T04:36:45;2.13;;;0.80;;
44762;SDS011;30483;49.576;6.036;2023-12-20T04:39:11;2.72;;;0.70;;
44762;SDS011;30483;49.576;6.036;2023-12-20T04:41:38;2.08;;;0.85;;
44762;SDS011;30483;49.576;6.036;2023-12-20T04:44:04;1.33;;;0.70;;
44762;SDS011;30483;49.576;6.036;2023-12-20T04:46:29;2.15;;;0.70;;
44762;SDS011;30483;49.576;6.036;2023-12-20T04:48:55;2.42;;;1.17;;
44762;SDS011;30483;49.576;6.036;2023-12-20T04:51:20;4.00;;;0.80;;
44762;SDS011;30483;49.576;6.036;2023-12-20T04:53:46;2.30;;;0.63;;
44762;SDS011;30483;49.576;6.036;2023-12-20T04:56:12;1.90;;;0.60;;
44762;SDS011;30483;49.576;6.036;2023-12-20T04:58:37;1.42;;;0.60;;
44762;SDS011;30483;49.576;6.036;2023-12-20T05:01:03;3.42;;;0.70;;
44762;SDS011;30483;49.576;6.036;2023-12-20T05:03:30;2.15;;;0.60;;
44762;SDS011;30483;49.576;6.036;2023-12-20T05:05:56;1.77;;;0.60;;
44762;SDS011;30483;49.576;6.036;2023-12-20T05:08:21;2.90;;;0.80;;
44762;SDS011;30483;49.576;6.036;2023-12-20T05:10:47;2.58;;;0.90;;
44762;SDS011;30483;49.576;6.036;2023-12-20T05:13:13;2.45;;;0.90;;
44762;SDS011;30483;49.576;6.036;2023-12-20T05:15:38;2.58;;;0.93;;
44762;SDS011;30483;49.576;6.036;2023-12-20T05:18:04;2.95;;;1.02;;
44762;SDS011;30483;49.576;6.036;2023-12-20T05:20:30;2.15;;;0.85;;
44762;SDS011;30483;49.576;6.036;2023-12-20T05:22:55;2.08;;;0.73;;
44762;SDS011;30483;49.576;6.036;2023-12-20T05:25:21;2.47;;;1.08;;
44762;SDS011;30483;49.576;6.036;2023-12-20T05:27:47;2.83;;;1.08;;
44762;SDS011;30483;49.576;6.036;2023-12-20T05:30:13;2.00;;;0.70;;
44762;SDS011;30483;49.576;6.036;2023-12-20T05:32:38;2.53;;;0.88;;
44762;SDS011;30483;49.576;6.036;2023-12-20T05:35:04;2.78;;;0.90;;
44762;SDS011;30483;49.576;6.036;2023-12-20T05:37:30;2.90;;;1.00;;
44762;SDS011;30483;49.576;6.036;2023-12-20T05:39:55;3.53;;;0.90;;
44762;SDS011;30483;49.576;6.036;2023-12-20T05:42:21;2.22;;;0.90;;
44762;SDS011;30483;49.576;6.036;2023-12-20T05:44:46;2.63;;;0.90;;
44762;SDS011;30483;49.576;6.036;2023-12-20T05:47:12;2.65;;;0.80;;
44762;SDS011;30483;49.576;6.036;2023-12-20T05:49:37;6.35;;;1.98;;
44762;SDS011;30483;49.576;6.036;2023-12-20T05:52:03;5.43;;;1.77;;
44762;SDS011;30483;49.576;6.036;2023-12-20T05:54:29;7.38;;;2.00;;
44762;SDS011;30483;49.576;6.036;2023-12-20T05:56:55;4.72;;;1.70;;
44762;SDS011;30483;49.576;6.036;2023-12-20T05:59:20;5.85;;;1.70;;
44762;SDS011;30483;49.576;6.036;2023-12-20T06:01:46;5.28;;;1.80;;
44762;SDS011;30483;49.576;6.036;2023-12-20T06:04:11;6.25;;;1.80;;
44762;SDS011;30483;49.576;6.036;2023-12-20T06:06:41;6.00;;;1.77;;
44762;SDS011;30483;49.576;6.036;2023-12-20T06:11:32;4.75;;;1.83;;
44762;SDS011;30483;49.576;6.036;2023-12-20T06:13:58;7.05;;;1.85;;
44762;SDS011;30483;49.576;6.036;2023-12-20T06:16:24;5.10;;;1.40;;
44762;SDS011;30483;49.576;6.036;2023-12-20T06:18:49;7.10;;;1.85;;
44762;SDS011;30483;49.576;6.036;2023-12-20T06:21:15;5.65;;;1.52;;
44762;SDS011;30483;49.576;6.036;2023-12-20T06:23:41;5.63;;;1.65;;
44762;SDS011;30483;49.576;6.036;2023-12-20T06:26:06;4.22;;;1.80;;
44762;SDS011;30483;49.576;6.036;2023-12-20T06:28:32;5.55;;;1.75;;
44762;SDS011;30483;49.576;6.036;2023-12-20T06:30:57;5.00;;;1.80;;
44762;SDS011;30483;49.576;6.036;2023-12-20T06:33:24;5.18;;;1.88;;
44762;SDS011;30483;49.576;6.036;2023-12-20T06:35:49;7.85;;;1.90;;
44762;SDS011;30483;49.576;6.036;2023-12-20T06:38:15;5.05;;;1.77;;
44762;SDS011;30483;49.576;6.036;2023-12-20T06:40:44;5.45;;;1.65;;
44762;SDS011;30483;49.576;6.036;2023-12-20T06:43:10;4.72;;;1.70;;
44762;SDS011;30483;49.576;6.036;2023-12-20T06:45:38;5.45;;;1.90;;
44762;SDS011;30483;49.576;6.036;2023-12-20T06:48:04;6.55;;;1.85;;
44762;SDS011;30483;49.576;6.036;2023-12-20T06:50:30;3.90;;;1.27;;
44762;SDS011;30483;49.576;6.036;2023-12-20T06:52:55;8.02;;;2.13;;
44762;SDS011;30483;49.576;6.036;2023-12-20T06:55:21;11.32;;;3.88;;
44762;SDS011;30483;49.576;6.036;2023-12-20T06:57:46;11.48;;;3.03;;
44762;SDS011;30483;49.576;6.036;2023-12-20T07:00:12;9.52;;;2.92;;
44762;SDS011;30483;49.576;6.036;2023-12-20T07:02:38;7.97;;;2.55;;
44762;SDS011;30483;49.576;6.036;2023-12-20T07:05:04;6.50;;;2.55;;
44762;SDS011;30483;49.576;6.036;2023-12-20T07:07:30;8.57;;;2.58;;
44762;SDS011;30483;49.576;6.036;2023-12-20T07:09:55;7.65;;;2.90;;
44762;SDS011;30483;49.576;6.036;2023-12-20T07:12:21;10.63;;;2.90;;
44762;SDS011;30483;49.576;6.036;2023-12-20T07:14:47;7.40;;;2.70;;
44762;SDS011;30483;49.576;6.036;2023-12-20T07:17:12;6.15;;;2.03;;
44762;SDS011;30483;49.576;6.036;2023-12-20T07:19:40;6.53;;;2.40;;
44762;SDS011;30483;49.576;6.036;2023-12-20T07:22:06;6.40;;;2.30;;
44762;SDS011;30483;49.576;6.036;2023-12-20T07:24:32;5.75;;;2.55;;
44762;SDS011;30483;49.576;6.036;2023-12-20T07:27:01;9.70;;;2.60;;
44762;SDS011;30483;49.576;6.036;2023-12-20T07:29:27;6.45;;;2.55;;
44762;SDS011;30483;49.576;6.036;2023-12-20T07:31:53;7.50;;;2.05;;
44762;SDS011;30483;49.576;6.036;2023-12-20T07:34:19;7.90;;;2.65;;
44762;SDS011;30483;49.576;6.036;2023-12-20T07:36:45;7.80;;;2.70;;
44762;SDS011;30483;49.576;6.036;2023-12-20T07:39:12;8.10;;;2.67;;
44762;SDS011;30483;49.576;6.036;2023-12-20T07:41:37;7.65;;;2.47;;
44762;SDS011;30483;49.576;6.036;2023-12-20T07:44:04;7.43;;;2.67;;
44762;SDS011;30483;49.576;6.036;2023-12-20T07:46:29;9.65;;;2.33;;
44762;SDS011;30483;49.576;6.036;2023-12-20T07:48:55;4.90;;;1.98;;
44762;SDS011;30483;49.576;6.036;2023-12-20T07:51:21;5.57;;;2.28;;
44762;SDS011;30483;49.576;6.036;2023-12-20T07:53:46;5.95;;;2.10;;
44762;SDS011;30483;49.576;6.036;2023-12-20T07:56:19;6.28;;;2.10;;
44762;SDS011;30483;49.576;6.036;2023-12-20T07:58:45;5.72;;;2.15;;
44762;SDS011;30483;49.576;6.036;2023-12-20T08:01:11;5.20;;;2.17;;
44762;SDS011;30483;49.576;6.036;2023-12-20T08:03:37;8.15;;;2.28;;
44762;SDS011;30483;49.576;6.036;2023-12-20T08:06:03;7.82;;;2.10;;
44762;SDS011;30483;49.576;6.036;2023-12-20T08:08:30;6.25;;;2.03;;
44762;SDS011;30483;49.576;6.036;2023-12-20T08:10:55;7.13;;;2.10;;
44762;SDS011;30483;49.576;6.036;2023-12-20T08:13:24;7.13;;;2.13;;
44762;SDS011;30483;49.576;6.036;2023-12-20T08:15:51;4.63;;;1.88;;
44762;SDS011;30483;49.576;6.036;2023-12-20T08:18:17;5.25;;;2.15;;
44762;SDS011;30483;49.576;6.036;2023-12-20T08:20:42;5.15;;;2.03;;
44762;SDS011;30483;49.576;6.036;2023-12-20T08:23:08;6.43;;;2.17;;
44762;SDS011;30483;49.576;6.036;2023-12-20T08:25:33;9.95;;;2.45;;
44762;SDS011;30483;49.576;6.036;2023-12-20T08:27:59;6.82;;;2.22;;
44762;SDS011;30483;49.576;6.036;2023-12-20T08:30:24;7.22;;;2.30;;
44762;SDS011;30483;49.576;6.036;2023-12-20T08:32:50;5.22;;;1.83;;
44762;SDS011;30483;49.576;6.036;2023-12-20T08:35:16;5.72;;;2.15;;
44762;SDS011;30483;49.576;6.036;2023-12-20T08:37:42;7.22;;;1.98;;
44762;SDS011;30483;49.576;6.036;2023-12-20T08:40:08;5.25;;;1.83;;
44762;SDS011;30483;49.576;6.036;2023-12-20T08:42:34;7.45;;;2.00;;
44762;SDS011;30483;49.576;6.036;2023-12-20T08:45:00;6.72;;;2.00;;
44762;SDS011;30483;49.576;6.036;2023-12-20T08:47:25;6.47;;;2.17;;
44762;SDS011;30483;49.576;6.036;2023-12-20T08:49:51;6.28;;;2.10;;
44762;SDS011;30483;49.576;6.036;2023-12-20T08:52:21;6.13;;;2.08;;
44762;SDS011;30483;49.576;6.036;2023-12-20T08:54:52;5.57;;;2.38;;
44762;SDS011;30483;49.576;6.036;2023-12-20T08:57:19;7.32;;;2.47;;
44762;SDS011;30483;49.576;6.036;2023-12-20T08:59:51;6.22;;;1.92;;
44762;SDS011;30483;49.576;6.036;2023-12-20T09:02:17;4.05;;;1.88;;
44762;SDS011;30483;49.576;6.036;2023-12-20T09:04:42;4.38;;;2.00;;
44762;SDS011;30483;49.576;6.036;2023-12-20T09:07:24;4.93;;;2.05;;
44762;SDS011;30483;49.576;6.036;2023-12-20T09:09:51;7.20;;;2.13;;
44762;SDS011;30483;49.576;6.036;2023-12-20T09:12:18;6.65;;;2.10;;
44762;SDS011;30483;49.576;6.036;2023-12-20T09:14:48;6.88;;;2.13;;
44762;SDS011;30483;49.576;6.036;2023-12-20T09:17:15;6.75;;;2.10;;
44762;SDS011;30483;49.576;6.036;2023-12-20T09:19:41;7.05;;;2.28;;
44762;SDS011;30483;49.576;6.036;2023-12-20T09:22:09;4.65;;;2.00;;
44762;SDS011;30483;49.576;6.036;2023-12-20T09:24:35;5.90;;;1.75;;
44762;SDS011;30483;49.576;6.036;2023-12-20T09:27:01;5.97;;;2.15;;
44762;SDS011;30483;49.576;6.036;2023-12-20T09:29:26;11.85;;;3.30;;
44762;SDS011;30483;49.576;6.036;2023-12-20T09:31:52;9.82;;;3.53;;
44762;SDS011;30483;49.576;6.036;2023-12-20T09:34:17;11.48;;;3.05;;
44762;SDS011;30483;49.576;6.036;2023-12-20T09:36:43;9.65;;;3.17;;
44762;SDS011;30483;49.576;6.036;2023-12-20T09:39:16;10.27;;;2.97;;
44762;SDS011;30483;49.576;6.036;2023-12-20T09:41:46;6.53;;;2.38;;
44762;SDS011;30483;49.576;6.036;2023-12-20T09:44:20;9.05;;;2.55;;
44762;SDS011;30483;49.576;6.036;2023-12-20T09:46:48;8.95;;;2.80;;
44762;SDS011;30483;49.576;6.036;2023-12-20T09:49:16;9.07;;;3.08;;
44762;SDS011;30483;49.576;6.036;2023-12-20T09:51:43;11.32;;;2.60;;
44762;SDS011;30483;49.576;6.036;2023-12-20T09:54:11;9.95;;;2.72;;
44762;SDS011;30483;49.576;6.036;2023-12-20T09:56:39;8.70;;;2.17;;
44762;SDS011;30483;49.576;6.036;2023-12-20T09:59:04;11.10;;;2.40;;
44762;SDS011;30483;49.576;6.036;2023-12-20T10:01:30;7.82;;;2.40;;
44762;SDS011;30483;49.576;6.036;2023-12-20T10:03:56;6.18;;;2.10;;
44762;SDS011;30483;49.576;6.036;2023-12-20T10:06:24;7.35;;;2.58;;
44762;SDS011;30483;49.576;6.036;2023-12-20T10:08:50;6.65;;;1.90;;
44762;SDS011;30483;49.576;6.036;2023-12-20T10:11:15;7.28;;;2.20;;
44762;SDS011;30483;49.576;6.036;2023-12-20T10:13:41;5.60;;;1.92;;
44762;SDS011;30483;49.576;6.036;2023-12-20T10:16:07;8.98;;;2.40;;
44762;SDS011;30483;49.576;6.036;2023-12-20T10:18:33;7.32;;;2.20;;
44762;SDS011;30483;49.576;6.036;2023-12-20T10:20:58;6.63;;;1.80;;
44762;SDS011;30483;49.576;6.036;2023-12-20T10:23:25;4.95;;;1.90;;
44762;SDS011;30483;49.576;6.036;2023-12-20T10:25:57;6.32;;;2.35;;
44762;SDS011;30483;49.576;6.036;2023-12-20T10:28:23;5.50;;;1.65;;
44762;SDS011;30483;49.576;6.036;2023-12-20T10:30:52;5.40;;;2.05;;
44762;SDS011;30483;49.576;6.036;2023-12-20T10:33:23;5.50;;;2.10;;
44762;SDS011;30483;49.576;6.036;2023-12-20T10:35:50;5.88;;;1.90;;
44762;SDS011;30483;49.576;6.036;2023-12-20T10:38:16;5.03;;;1.75;;
44762;SDS011;30483;49.576;6.036;2023-12-20T10:40:42;7.00;;;2.15;;
44762;SDS011;30483;49.576;6.036;2023-12-20T10:43:09;6.32;;;2.10;;
44762;SDS011;30483;49.576;6.036;2023-12-20T10:45:36;5.63;;;1.90;;
44762;SDS011;30483;49.576;6.036;2023-12-20T10:48:02;6.53;;;1.90;;
44762;SDS011;30483;49.576;6.036;2023-12-20T10:50:28;7.30;;;1.80;;
44762;SDS011;30483;49.576;6.036;2023-12-20T10:52:58;5.25;;;1.95;;
44762;SDS011;30483;49.576;6.036;2023-12-20T10:55:24;6.28;;;2.10;;
44762;SDS011;30483;49.576;6.036;2023-12-20T10:58:09;6.32;;;2.10;;
44762;SDS011;30483;49.576;6.036;2023-12-20T11:00:36;5.82;;;1.60;;
44762;SDS011;30483;49.576;6.036;2023-12-20T11:03:08;24.33;;;8.65;;
44762;SDS011;30483;49.576;6.036;2023-12-20T11:05:46;21.65;;;7.90;;
44762;SDS011;30483;49.576;6.036;2023-12-20T11:13:48;9.27;;;3.70;;
44762;SDS011;30483;49.576;6.036;2023-12-20T11:16:18;9.82;;;3.60;;
44762;SDS011;30483;49.576;6.036;2023-12-20T11:18:44;10.88;;;3.75;;
44762;SDS011;30483;49.576;6.036;2023-12-20T11:21:10;12.40;;;3.50;;
44762;SDS011;30483;49.576;6.036;2023-12-20T11:23:36;14.05;;;5.43;;
44762;SDS011;30483;49.576;6.036;2023-12-20T11:26:02;14.07;;;4.03;;
44762;SDS011;30483;49.576;6.036;2023-12-20T11:28:28;14.35;;;3.90;;
44762;SDS011;30483;49.576;6.036;2023-12-20T11:30:57;10.50;;;3.70;;
44762;SDS011;30483;49.576;6.036;2023-12-20T11:33:29;13.10;;;3.47;;
44762;SDS011;30483;49.576;6.036;2023-12-20T11:36:02;9.75;;;3.63;;
44762;SDS011;30483;49.576;6.036;2023-12-20T11:38:35;9.98;;;3.75;;
44762;SDS011;30483;49.576;6.036;2023-12-20T11:41:06;10.07;;;3.40;;
44762;SDS011;30483;49.576;6.036;2023-12-20T11:43:34;9.70;;;2.88;;
44762;SDS011;30483;49.576;6.036;2023-12-20T11:46:04;7.22;;;2.90;;
44762;SDS011;30483;49.576;6.036;2023-12-20T11:48:31;9.18;;;3.10;;
44762;SDS011;30483;49.576;6.036;2023-12-20T11:50:57;10.40;;;3.20;;
44762;SDS011;30483;49.576;6.036;2023-12-20T11:53:23;9.00;;;2.95;;
44762;SDS011;30483;49.576;6.036;2023-12-20T11:55:49;7.90;;;3.08;;
44762;SDS011;30483;49.576;6.036;2023-12-20T11:58:14;8.30;;;2.67;;
44762;SDS011;30483;49.576;6.036;2023-12-20T12:00:41;8.90;;;3.08;;
44762;SDS011;30483;49.576;6.036;2023-12-20T12:03:08;9.50;;;2.83;;
44762;SDS011;30483;49.576;6.036;2023-12-20T12:05:34;6.43;;;2.50;;
44762;SDS011;30483;49.576;6.036;2023-12-20T12:08:00;10.40;;;3.28;;
44762;SDS011;30483;49.576;6.036;2023-12-20T12:10:28;9.70;;;2.88;;
44762;SDS011;30483;49.576;6.036;2023-12-20T12:12:54;9.40;;;2.80;;
44762;SDS011;30483;49.576;6.036;2023-12-20T12:15:20;9.18;;;3.20;;
44762;SDS011;30483;49.576;6.036;2023-12-20T12:17:56;7.68;;;2.45;;
44762;SDS011;30483;49.576;6.036;2023-12-20T12:20:22;8.90;;;2.72;;
44762;SDS011;30483;49.576;6.036;2023-12-20T12:25:49;6.50;;;2.38;;
44762;SDS011;30483;49.576;6.036;2023-12-20T12:28:15;7.18;;;2.60;;
44762;SDS011;30483;49.576;6.036;2023-12-20T12:30:41;9.27;;;2.58;;
44762;SDS011;30483;49.576;6.036;2023-12-20T12:33:07;8.75;;;2.88;;
44762;SDS011;30483;49.576;6.036;2023-12-20T12:35:33;7.70;;;2.60;;
44762;SDS011;30483;49.576;6.036;2023-12-20T12:37:59;11.35;;;2.90;;
44762;SDS011;30483;49.576;6.036;2023-12-20T12:40:26;8.05;;;2.50;;
44762;SDS011;30483;49.576;6.036;2023-12-20T12:42:52;7.13;;;2.83;;
44762;SDS011;30483;49.576;6.036;2023-12-20T12:45:17;10.70;;;2.67;;
44762;SDS011;30483;49.576;6.036;2023-12-20T12:47:45;4.95;;;2.15;;
44762;SDS011;30483;49.576;6.036;2023-12-20T12:50:10;8.45;;;2.38;;
44762;SDS011;30483;49.576;6.036;2023-12-20T12:52:36;8.23;;;2.67;;
44762;SDS011;30483;49.576;6.036;2023-12-20T12:55:02;7.40;;;2.17;;
44762;SDS011;30483;49.576;6.036;2023-12-20T12:57:29;7.28;;;2.40;;
44762;SDS011;30483;49.576;6.036;2023-12-20T12:59:55;10.20;;;2.78;;
44762;SDS011;30483;49.576;6.036;2023-12-20T13:02:21;6.57;;;2.10;;
44762;SDS011;30483;49.576;6.036;2023-12-20T13:04:47;6.50;;;2.28;;
44762;SDS011;30483;49.576;6.036;2023-12-20T13:07:12;5.85;;;2.33;;
44762;SDS011;30483;49.576;6.036;2023-12-20T13:09:38;11.10;;;2.60;;
44762;SDS011;30483;49.576;6.036;2023-12-20T13:12:05;6.13;;;2.22;;
44762;SDS011;30483;49.576;6.036;2023-12-20T13:14:32;7.53;;;2.50;;
44762;SDS011;30483;49.576;6.036;2023-12-20T13:16:59;7.53;;;2.33;;
44762;SDS011;30483;49.576;6.036;2023-12-20T13:19:26;7.18;;;2.38;;
44762;SDS011;30483;49.576;6.036;2023-12-20T13:21:51;8.05;;;2.17;;
44762;SDS011;30483;49.576;6.036;2023-12-20T13:24:17;6.43;;;2.33;;
44762;SDS011;30483;49.576;6.036;2023-12-20T13:26:43;7.15;;;2.15;;
44762;SDS011;30483;49.576;6.036;2023-12-20T13:29:09;6.97;;;2.10;;
44762;SDS011;30483;49.576;6.036;2023-12-20T13:31:35;7.07;;;1.95;;
44762;SDS011;30483;49.576;6.036;2023-12-20T13:34:01;8.63;;;2.15;;
44762;SDS011;30483;49.576;6.036;2023-12-20T13:36:27;10.40;;;2.70;;
44762;SDS011;30483;49.576;6.036;2023-12-20T13:38:52;6.65;;;2.15;;
44762;SDS011;30483;49.576;6.036;2023-12-20T13:41:19;9.35;;;2.28;;
44762;SDS011;30483;49.576;6.036;2023-12-20T13:43:45;6.47;;;2.47;;
44762;SDS011;30483;49.576;6.036;2023-12-20T13:46:10;7.45;;;2.45;;
44762;SDS011;30483;49.576;6.036;2023-12-20T13:48:36;6.20;;;1.92;;
44762;SDS011;30483;49.576;6.036;2023-12-20T13:51:02;7.30;;;1.85;;
44762;SDS011;30483;49.576;6.036;2023-12-20T13:53:28;5.25;;;2.05;;
44762;SDS011;30483;49.576;6.036;2023-12-20T13:55:53;7.05;;;2.20;;
44762;SDS011;30483;49.576;6.036;2023-12-20T13:58:19;6.35;;;1.90;;
44762;SDS011;30483;49.576;6.036;2023-12-20T14:00:45;4.63;;;1.67;;
44762;SDS011;30483;49.576;6.036;2023-12-20T14:03:10;6.75;;;1.90;;
44762;SDS011;30483;49.576;6.036;2023-12-20T14:05:36;7.82;;;2.28;;
44762;SDS011;30483;49.576;6.036;2023-12-20T14:08:02;8.00;;;2.40;;
44762;SDS011;30483;49.576;6.036;2023-12-20T14:10:28;7.40;;;2.30;;
44762;SDS011;30483;49.576;6.036;2023-12-20T14:12:54;6.30;;;1.98;;
44762;SDS011;30483;49.576;6.036;2023-12-20T14:15:20;6.70;;;1.92;;
44762;SDS011;30483;49.576;6.036;2023-12-20T14:17:45;11.07;;;2.10;;
44762;SDS011;30483;49.576;6.036;2023-12-20T14:20:11;7.75;;;2.13;;
44762;SDS011;30483;49.576;6.036;2023-12-20T14:22:38;8.98;;;2.20;;
44762;SDS011;30483;49.576;6.036;2023-12-20T14:25:04;7.18;;;2.10;;
44762;SDS011;30483;49.576;6.036;2023-12-20T14:27:31;8.27;;;2.20;;
44762;SDS011;30483;49.576;6.036;2023-12-20T14:29:57;6.38;;;2.28;;
44762;SDS011;30483;49.576;6.036;2023-12-20T14:32:23;9.25;;;1.95;;
44762;SDS011;30483;49.576;6.036;2023-12-20T14:34:50;6.35;;;2.00;;
44762;SDS011;30483;49.576;6.036;2023-12-20T14:37:16;4.75;;;1.77;;
44762;SDS011;30483;49.576;6.036;2023-12-20T14:39:42;7.13;;;2.20;;
44762;SDS011;30483;49.576;6.036;2023-12-20T14:42:08;6.88;;;2.20;;
44762;SDS011;30483;49.576;6.036;2023-12-20T14:44:37;5.93;;;2.28;;
44762;SDS011;30483;49.576;6.036;2023-12-20T14:47:03;5.72;;;1.80;;
44762;SDS011;30483;49.576;6.036;2023-12-20T14:49:29;7.07;;;1.90;;
44762;SDS011;30483;49.576;6.036;2023-12-20T14:51:55;6.60;;;2.47;;
44762;SDS011;30483;49.576;6.036;2023-12-20T14:54:20;6.70;;;2.13;;
44762;SDS011;30483;49.576;6.036;2023-12-20T14:56:46;7.30;;;2.22;;
44762;SDS011;30483;49.576;6.036;2023-12-20T14:59:12;7.53;;;2.13;;
44762;SDS011;30483;49.576;6.036;2023-12-20T15:01:38;7.82;;;2.17;;
44762;SDS011;30483;49.576;6.036;2023-12-20T15:04:05;6.40;;;2.03;;
44762;SDS011;30483;49.576;6.036;2023-12-20T15:06:31;7.18;;;2.15;;
44762;SDS011;30483;49.576;6.036;2023-12-20T15:08:58;7.63;;;2.28;;
44762;SDS011;30483;49.576;6.036;2023-12-20T15:11:24;9.27;;;2.25;;
44762;SDS011;30483;49.576;6.036;2023-12-20T15:13:51;7.00;;;2.38;;
44762;SDS011;30483;49.576;6.036;2023-12-20T15:16:21;6.25;;;2.10;;
44762;SDS011;30483;49.576;6.036;2023-12-20T15:18:50;6.70;;;1.88;;
44762;SDS011;30483;49.576;6.036;2023-12-20T15:21:16;10.63;;;2.50;;
44762;SDS011;30483;49.576;6.036;2023-12-20T15:23:42;7.47;;;2.10;;
44762;SDS011;30483;49.576;6.036;2023-12-20T15:26:30;6.18;;;1.70;;
44762;SDS011;30483;49.576;6.036;2023-12-20T15:28:59;4.43;;;1.83;;
44762;SDS011;30483;49.576;6.036;2023-12-20T15:31:26;7.20;;;2.00;;
44762;SDS011;30483;49.576;6.036;2023-12-20T15:33:52;8.15;;;2.45;;
44762;SDS011;30483;49.576;6.036;2023-12-20T15:36:18;7.20;;;1.80;;
44762;SDS011;30483;49.576;6.036;2023-12-20T15:38:44;6.15;;;1.83;;
44762;SDS011;30483;49.576;6.036;2023-12-20T15:41:16;7.15;;;1.92;;
44762;SDS011;30483;49.576;6.036;2023-12-20T15:43:46;4.88;;;1.73;;
44762;SDS011;30483;49.576;6.036;2023-12-20T15:46:11;7.80;;;2.00;;
44762;SDS011;30483;49.576;6.036;2023-12-20T15:48:37;6.47;;;1.83;;
44762;SDS011;30483;49.576;6.036;2023-12-20T15:51:06;4.60;;;1.63;;
44762;SDS011;30483;49.576;6.036;2023-12-20T15:53:33;9.20;;;2.03;;
44762;SDS011;30483;49.576;6.036;2023-12-20T15:55:59;7.45;;;2.20;;
44762;SDS011;30483;49.576;6.036;2023-12-20T15:58:24;11.38;;;2.40;;
44762;SDS011;30483;49.576;6.036;2023-12-20T16:00:50;10.23;;;2.38;;
44762;SDS011;30483;49.576;6.036;2023-12-20T16:03:16;9.73;;;2.25;;
44762;SDS011;30483;49.576;6.036;2023-12-20T16:05:42;10.63;;;2.80;;
44762;SDS011;30483;49.576;6.036;2023-12-20T16:08:07;13.82;;;2.83;;
44762;SDS011;30483;49.576;6.036;2023-12-20T16:10:33;10.07;;;2.47;;
44762;SDS011;30483;49.576;6.036;2023-12-20T16:12:58;10.38;;;2.50;;
44762;SDS011;30483;49.576;6.036;2023-12-20T16:15:24;10.82;;;2.63;;
44762;SDS011;30483;49.576;6.036;2023-12-20T16:17:50;13.05;;;2.42;;
44762;SDS011;30483;49.576;6.036;2023-12-20T16:20:16;7.45;;;2.05;;
44762;SDS011;30483;49.576;6.036;2023-12-20T16:22:42;10.75;;;2.70;;
44762;SDS011;30483;49.576;6.036;2023-12-20T16:25:08;10.48;;;2.05;;
44762;SDS011;30483;49.576;6.036;2023-12-20T16:27:35;7.00;;;1.90;;
44762;SDS011;30483;49.576;6.036;2023-12-20T16:30:04;7.88;;;1.98;;
44762;SDS011;30483;49.576;6.036;2023-12-20T16:32:31;7.03;;;1.73;;
44762;SDS011;30483;49.576;6.036;2023-12-20T16:34:57;7.22;;;1.80;;
44762;SDS011;30483;49.576;6.036;2023-12-20T16:37:23;8.18;;;2.33;;
44762;SDS011;30483;49.576;6.036;2023-12-20T16:39:49;7.55;;;2.00;;
44762;SDS011;30483;49.576;6.036;2023-12-20T16:42:15;7.53;;;2.20;;
44762;SDS011;30483;49.576;6.036;2023-12-20T16:44:42;7.05;;;2.00;;
44762;SDS011;30483;49.576;6.036;2023-12-20T16:47:13;9.20;;;2.05;;
44762;SDS011;30483;49.576;6.036;2023-12-20T16:49:39;7.63;;;1.95;;
44762;SDS011;30483;49.576;6.036;2023-12-20T16:52:05;5.18;;;1.80;;
44762;SDS011;30483;49.576;6.036;2023-12-20T16:54:30;6.32;;;2.15;;
44762;SDS011;30483;49.576;6.036;2023-12-20T16:56:57;6.70;;;1.90;;
44762;SDS011;30483;49.576;6.036;2023-12-20T16:59:43;5.82;;;1.80;;
44762;SDS011;30483;49.576;6.036;2023-12-20T17:02:09;5.70;;;1.90;;
44762;SDS011;30483;49.576;6.036;2023-12-20T17:04:34;5.75;;;1.65;;
44762;SDS011;30483;49.576;6.036;2023-12-20T17:07:00;7.72;;;1.83;;
44762;SDS011;30483;49.576;6.036;2023-12-20T17:09:26;4.55;;;1.70;;
44762;SDS011;30483;49.576;6.036;2023-12-20T17:11:52;6.53;;;2.00;;
44762;SDS011;30483;49.576;6.036;2023-12-20T17:14:18;7.25;;;1.60;;
44762;SDS011;30483;49.576;6.036;2023-12-20T17:16:43;5.75;;;1.58;;
44762;SDS011;30483;49.576;6.036;2023-12-20T17:19:11;4.93;;;1.67;;
44762;SDS011;30483;49.576;6.036;2023-12-20T17:21:36;5.28;;;1.80;;
44762;SDS011;30483;49.576;6.036;2023-12-20T17:24:02;5.35;;;1.60;;
44762;SDS011;30483;49.576;6.036;2023-12-20T17:26:28;5.22;;;1.75;;
44762;SDS011;30483;49.576;6.036;2023-12-20T17:28:53;6.57;;;1.90;;
44762;SDS011;30483;49.576;6.036;2023-12-20T17:31:19;6.50;;;1.80;;
44762;SDS011;30483;49.576;6.036;2023-12-20T17:33:44;4.50;;;1.65;;
44762;SDS011;30483;49.576;6.036;2023-12-20T17:36:10;4.35;;;1.73;;
44762;SDS011;30483;49.576;6.036;2023-12-20T17:38:39;4.20;;;1.50;;
44762;SDS011;30483;49.576;6.036;2023-12-20T17:41:11;5.35;;;1.80;;
44762;SDS011;30483;49.576;6.036;2023-12-20T17:43:38;4.10;;;1.50;;
44762;SDS011;30483;49.576;6.036;2023-12-20T17:46:03;5.32;;;1.70;;
44762;SDS011;30483;49.576;6.036;2023-12-20T17:48:29;5.50;;;1.90;;
44762;SDS011;30483;49.576;6.036;2023-12-20T17:50:54;5.53;;;1.70;;
44762;SDS011;30483;49.576;6.036;2023-12-20T17:53:21;5.43;;;1.50;;
44762;SDS011;30483;49.576;6.036;2023-12-20T17:55:47;5.55;;;1.77;;
44762;SDS011;30483;49.576;6.036;2023-12-20T17:58:13;5.30;;;1.50;;
44762;SDS011;30483;49.576;6.036;2023-12-20T18:00:39;4.40;;;1.70;;
44762;SDS011;30483;49.576;6.036;2023-12-20T18:03:05;4.07;;;1.70;;
44762;SDS011;30483;49.576;6.036;2023-12-20T18:05:31;5.22;;;1.65;;
44762;SDS011;30483;49.576;6.036;2023-12-20T18:07:56;3.97;;;1.45;;
44762;SDS011;30483;49.576;6.036;2023-12-20T18:10:22;4.32;;;1.40;;
44762;SDS011;30483;49.576;6.036;2023-12-20T18:12:47;4.82;;;1.67;;
44762;SDS011;30483;49.576;6.036;2023-12-20T18:15:13;5.43;;;1.77;;
44762;SDS011;30483;49.576;6.036;2023-12-20T18:17:39;4.13;;;1.55;;
44762;SDS011;30483;49.576;6.036;2023-12-20T18:20:19;4.65;;;1.50;;
44762;SDS011;30483;49.576;6.036;2023-12-20T18:22:44;3.88;;;1.67;;
44762;SDS011;30483;49.576;6.036;2023-12-20T18:25:10;3.17;;;1.58;;
44762;SDS011;30483;49.576;6.036;2023-12-20T18:27:36;3.70;;;1.30;;
44762;SDS011;30483;49.576;6.036;2023-12-20T18:30:02;4.68;;;1.40;;
44762;SDS011;30483;49.576;6.036;2023-12-20T18:32:34;3.78;;;1.50;;
44762;SDS011;30483;49.576;6.036;2023-12-20T18:35:01;4.10;;;1.48;;
44762;SDS011;30483;49.576;6.036;2023-12-20T18:37:28;3.92;;;1.77;;
44762;SDS011;30483;49.576;6.036;2023-12-20T18:39:54;7.40;;;2.63;;
44762;SDS011;30483;49.576;6.036;2023-12-20T18:42:20;5.88;;;2.13;;
44762;SDS011;30483;49.576;6.036;2023-12-20T18:44:46;8.50;;;2.60;;
44762;SDS011;30483;49.576;6.036;2023-12-20T18:47:12;5.32;;;2.22;;
44762;SDS011;30483;49.576;6.036;2023-12-20T18:49:38;6.40;;;2.38;;
44762;SDS011;30483;49.576;6.036;2023-12-20T18:52:03;4.40;;;1.92;;
44762;SDS011;30483;49.576;6.036;2023-12-20T18:54:34;4.15;;;2.03;;